sensor_id;sensor_type;location;lat;lon;timestamp;P1;durP1;ratioP1;P2;durP2;ratioP2
26838;SDS011;40088;51.214;6.786;2022-10-16T00:08:07;3.30;;;2.55;;
26838;SDS011;40088;51.214;6.786;2022-10-16T00:18:08;3.42;;;2.30;;
26838;SDS011;40088;51.214;6.786;2022-10-16T00:28:09;3.87;;;2.93;;
26838;SDS011;40088;51.214;6.786;2022-10-16T00:38:09;3.50;;;2.17;;
26838;SDS011;40088;51.214;6.786;2022-10-16T00:48:10;3.92;;;2.40;;
26838;SDS011;40088;51.214;6.786;2022-10-16T00:58:13;2.50;;;2.30;;
26838;SDS011;40088;51.214;6.786;2022-10-16T01:08:18;3.47;;;3.17;;
26838;SDS011;40088;51.214;6.786;2022-10-16T01:18:30;4.25;;;2.13;;
26838;SDS011;40088;51.214;6.786;2022-10-16T01:28:39;2.63;;;2.08;;
26838;SDS011;40088;51.214;6.786;2022-10-16T01:38:48;2.75;;;2.10;;
26838;SDS011;40088;51.214;6.786;2022-10-16T01:48:52;2.67;;;2.42;;
26838;SDS011;40088;51.214;6.786;2022-10-16T01:58:55;2.92;;;2.25;;
26838;SDS011;40088;51.214;6.786;2022-10-16T02:08:58;2.15;;;1.90;;
26838;SDS011;40088;51.214;6.786;2022-10-16T02:18:59;2.78;;;1.90;;
26838;SDS011;40088;51.214;6.786;2022-10-16T02:29:00;1.90;;;1.60;;
26838;SDS011;40088;51.214;6.786;2022-10-16T02:39:04;2.97;;;1.90;;
26838;SDS011;40088;51.214;6.786;2022-10-16T02:49:06;2.25;;;1.63;;
26838;SDS011;40088;51.214;6.786;2022-10-16T02:59:06;1.92;;;1.70;;
26838;SDS011;40088;51.214;6.786;2022-10-16T03:09:06;2.00;;;1.50;;
26838;SDS011;40088;51.214;6.786;2022-10-16T03:19:07;2.60;;;1.50;;
26838;SDS011;40088;51.214;6.786;2022-10-16T03:29:08;1.70;;;1.60;;
26838;SDS011;40088;51.214;6.786;2022-10-16T03:39:08;2.25;;;1.63;;
26838;SDS011;40088;51.214;6.786;2022-10-16T03:49:08;1.80;;;1.52;;
26838;SDS011;40088;51.214;6.786;2022-10-16T03:59:09;2.10;;;1.85;;
26838;SDS011;40088;51.214;6.786;2022-10-16T04:09:09;1.80;;;1.45;;
26838;SDS011;40088;51.214;6.786;2022-10-16T04:19:10;1.80;;;1.60;;
26838;SDS011;40088;51.214;6.786;2022-10-16T04:29:11;1.92;;;1.67;;
26838;SDS011;40088;51.214;6.786;2022-10-16T04:39:11;2.42;;;1.58;;
26838;SDS011;40088;51.214;6.786;2022-10-16T04:49:11;1.60;;;1.50;;
26838;SDS011;40088;51.214;6.786;2022-10-16T04:59:12;1.88;;;1.38;;
26838;SDS011;40088;51.214;6.786;2022-10-16T05:09:13;2.38;;;1.35;;
26838;SDS011;40088;51.214;6.786;2022-10-16T05:19:14;1.92;;;1.38;;
26838;SDS011;40088;51.214;6.786;2022-10-16T05:29:14;1.40;;;1.30;;
26838;SDS011;40088;51.214;6.786;2022-10-16T05:39:15;1.88;;;1.60;;
26838;SDS011;40088;51.214;6.786;2022-10-16T05:49:15;1.23;;;1.13;;
26838;SDS011;40088;51.214;6.786;2022-10-16T05:59:16;1.27;;;1.17;;
26838;SDS011;40088;51.214;6.786;2022-10-16T06:09:16;3.85;;;1.38;;
26838;SDS011;40088;51.214;6.786;2022-10-16T06:19:17;1.35;;;1.25;;
26838;SDS011;40088;51.214;6.786;2022-10-16T06:29:18;1.52;;;1.42;;
26838;SDS011;40088;51.214;6.786;2022-10-16T06:39:18;1.75;;;1.27;;
26838;SDS011;40088;51.214;6.786;2022-10-16T06:49:19;1.35;;;1.15;;
26838;SDS011;40088;51.214;6.786;2022-10-16T07:09:22;1.77;;;1.15;;
26838;SDS011;40088;51.214;6.786;2022-10-16T07:19:22;1.83;;;1.58;;
26838;SDS011;40088;51.214;6.786;2022-10-16T07:29:23;2.85;;;1.27;;
26838;SDS011;40088;51.214;6.786;2022-10-16T07:39:23;1.30;;;1.20;;
26838;SDS011;40088;51.214;6.786;2022-10-16T07:49:24;2.13;;;1.65;;
26838;SDS011;40088;51.214;6.786;2022-10-16T07:59:24;2.80;;;2.00;;
26838;SDS011;40088;51.214;6.786;2022-10-16T08:09:25;1.85;;;1.35;;
26838;SDS011;40088;51.214;6.786;2022-10-16T08:19:25;2.03;;;1.58;;
26838;SDS011;40088;51.214;6.786;2022-10-16T08:29:25;2.75;;;1.70;;
26838;SDS011;40088;51.214;6.786;2022-10-16T08:39:25;2.53;;;2.00;;
26838;SDS011;40088;51.214;6.786;2022-10-16T08:49:26;5.38;;;1.70;;
26838;SDS011;40088;51.214;6.786;2022-10-16T08:59:27;3.22;;;1.92;;
26838;SDS011;40088;51.214;6.786;2022-10-16T09:09:31;2.80;;;1.60;;
26838;SDS011;40088;51.214;6.786;2022-10-16T09:19:37;3.08;;;2.15;;
26838;SDS011;40088;51.214;6.786;2022-10-16T09:29:44;2.70;;;1.95;;
26838;SDS011;40088;51.214;6.786;2022-10-16T09:39:45;3.03;;;1.55;;
26838;SDS011;40088;51.214;6.786;2022-10-16T09:49:56;2.25;;;1.58;;
26838;SDS011;40088;51.214;6.786;2022-10-16T09:59:59;2.57;;;1.47;;
26838;SDS011;40088;51.214;6.786;2022-10-16T10:10:00;12.77;;;1.90;;
26838;SDS011;40088;51.214;6.786;2022-10-16T10:20:15;6.87;;;1.40;;
26838;SDS011;40088;51.214;6.786;2022-10-16T10:40:45;3.78;;;1.80;;
26838;SDS011;40088;51.214;6.786;2022-10-16T10:50:54;4.85;;;1.60;;
26838;SDS011;40088;51.214;6.786;2022-10-16T11:01:13;6.25;;;1.60;;
26838;SDS011;40088;51.214;6.786;2022-10-16T11:21:39;11.52;;;2.08;;
26838;SDS011;40088;51.214;6.786;2022-10-16T11:31:57;13.43;;;2.03;;
26838;SDS011;40088;51.214;6.786;2022-10-16T11:42:27;13.95;;;2.20;;
26838;SDS011;40088;51.214;6.786;2022-10-16T11:52:36;8.00;;;2.00;;
26838;SDS011;40088;51.214;6.786;2022-10-16T12:13:48;30.25;;;3.63;;
26838;SDS011;40088;51.214;6.786;2022-10-16T12:23:26;52.83;;;4.90;;
26838;SDS011;40088;51.214;6.786;2022-10-16T12:53:45;71.93;;;7.00;;
26838;SDS011;40088;51.214;6.786;2022-10-16T13:04:04;70.70;;;6.65;;
26838;SDS011;40088;51.214;6.786;2022-10-16T13:14:09;117.78;;;9.50;;
26838;SDS011;40088;51.214;6.786;2022-10-16T13:34:21;57.03;;;9.13;;
26838;SDS011;40088;51.214;6.786;2022-10-16T13:44:22;40.92;;;6.85;;
26838;SDS011;40088;51.214;6.786;2022-10-16T13:54:23;32.88;;;6.90;;
26838;SDS011;40088;51.214;6.786;2022-10-16T14:04:31;34.85;;;7.43;;
26838;SDS011;40088;51.214;6.786;2022-10-16T14:14:43;28.08;;;7.30;;
26838;SDS011;40088;51.214;6.786;2022-10-16T14:24:45;24.30;;;6.95;;
26838;SDS011;40088;51.214;6.786;2022-10-16T14:34:52;21.15;;;5.72;;
26838;SDS011;40088;51.214;6.786;2022-10-16T14:44:53;12.18;;;5.35;;
26838;SDS011;40088;51.214;6.786;2022-10-16T14:54:55;18.02;;;5.63;;
26838;SDS011;40088;51.214;6.786;2022-10-16T15:04:56;16.38;;;5.47;;
26838;SDS011;40088;51.214;6.786;2022-10-16T15:14:57;12.25;;;4.80;;
26838;SDS011;40088;51.214;6.786;2022-10-16T15:24:57;10.55;;;4.63;;
26838;SDS011;40088;51.214;6.786;2022-10-16T15:34:58;10.50;;;4.78;;
26838;SDS011;40088;51.214;6.786;2022-10-16T15:44:58;8.55;;;4.22;;
26838;SDS011;40088;51.214;6.786;2022-10-16T15:54:58;7.57;;;3.75;;
26838;SDS011;40088;51.214;6.786;2022-10-16T16:04:59;9.23;;;3.75;;
26838;SDS011;40088;51.214;6.786;2022-10-16T16:14:59;9.23;;;4.43;;
26838;SDS011;40088;51.214;6.786;2022-10-16T16:24:59;12.23;;;4.00;;
26838;SDS011;40088;51.214;6.786;2022-10-16T16:34:59;7.80;;;3.60;;
26838;SDS011;40088;51.214;6.786;2022-10-16T16:45:00;9.00;;;4.13;;
26838;SDS011;40088;51.214;6.786;2022-10-16T16:55:00;7.10;;;4.10;;
26838;SDS011;40088;51.214;6.786;2022-10-16T17:05:02;9.27;;;4.50;;
26838;SDS011;40088;51.214;6.786;2022-10-16T17:15:02;6.63;;;4.38;;
26838;SDS011;40088;51.214;6.786;2022-10-16T17:25:03;8.70;;;4.47;;
26838;SDS011;40088;51.214;6.786;2022-10-16T17:35:05;7.07;;;3.92;;
26838;SDS011;40088;51.214;6.786;2022-10-16T17:45:06;6.80;;;4.07;;
26838;SDS011;40088;51.214;6.786;2022-10-16T17:55:07;6.30;;;4.07;;
26838;SDS011;40088;51.214;6.786;2022-10-16T18:05:08;6.47;;;3.75;;
26838;SDS011;40088;51.214;6.786;2022-10-16T18:15:08;4.35;;;3.33;;
26838;SDS011;40088;51.214;6.786;2022-10-16T18:25:10;6.07;;;4.07;;
26838;SDS011;40088;51.214;6.786;2022-10-16T18:35:10;7.72;;;4.18;;
26838;SDS011;40088;51.214;6.786;2022-10-16T18:45:10;6.05;;;3.90;;
26838;SDS011;40088;51.214;6.786;2022-10-16T18:55:11;5.32;;;3.92;;
26838;SDS011;40088;51.214;6.786;2022-10-16T19:05:11;6.97;;;3.92;;
26838;SDS011;40088;51.214;6.786;2022-10-16T19:15:11;6.20;;;4.07;;
26838;SDS011;40088;51.214;6.786;2022-10-16T19:25:12;5.63;;;4.30;;
26838;SDS011;40088;51.214;6.786;2022-10-16T19:35:12;5.97;;;4.10;;
26838;SDS011;40088;51.214;6.786;2022-10-16T19:45:12;4.93;;;3.78;;
26838;SDS011;40088;51.214;6.786;2022-10-16T19:55:13;5.93;;;4.00;;
26838;SDS011;40088;51.214;6.786;2022-10-16T20:05:13;6.60;;;4.07;;
26838;SDS011;40088;51.214;6.786;2022-10-16T20:15:14;5.20;;;4.07;;
26838;SDS011;40088;51.214;6.786;2022-10-16T20:25:14;7.03;;;4.35;;
26838;SDS011;40088;51.214;6.786;2022-10-16T20:35:14;6.55;;;4.55;;
26838;SDS011;40088;51.214;6.786;2022-10-16T20:45:15;6.85;;;4.78;;
26838;SDS011;40088;51.214;6.786;2022-10-16T20:55:15;6.38;;;4.70;;
26838;SDS011;40088;51.214;6.786;2022-10-16T21:05:17;6.18;;;4.10;;
26838;SDS011;40088;51.214;6.786;2022-10-16T21:15:18;5.32;;;4.13;;
26838;SDS011;40088;51.214;6.786;2022-10-16T21:25:18;5.78;;;4.15;;
26838;SDS011;40088;51.214;6.786;2022-10-16T21:35:18;4.88;;;3.92;;
26838;SDS011;40088;51.214;6.786;2022-10-16T21:45:18;6.25;;;4.53;;
26838;SDS011;40088;51.214;6.786;2022-10-16T21:55:19;5.57;;;4.35;;
26838;SDS011;40088;51.214;6.786;2022-10-16T22:05:19;6.68;;;4.55;;
26838;SDS011;40088;51.214;6.786;2022-10-16T22:15:19;5.13;;;4.30;;
26838;SDS011;40088;51.214;6.786;2022-10-16T22:25:20;5.32;;;4.07;;
26838;SDS011;40088;51.214;6.786;2022-10-16T22:35:20;5.07;;;4.30;;
26838;SDS011;40088;51.214;6.786;2022-10-16T22:45:20;5.55;;;4.28;;
26838;SDS011;40088;51.214;6.786;2022-10-16T22:55:20;5.60;;;4.13;;
26838;SDS011;40088;51.214;6.786;2022-10-16T23:05:21;4.13;;;3.70;;
26838;SDS011;40088;51.214;6.786;2022-10-16T23:15:21;4.35;;;3.60;;
26838;SDS011;40088;51.214;6.786;2022-10-16T23:25:21;4.45;;;3.67;;
26838;SDS011;40088;51.214;6.786;2022-10-16T23:35:22;4.03;;;3.45;;
26838;SDS011;40088;51.214;6.786;2022-10-16T23:45:22;5.30;;;3.90;;
26838;SDS011;40088;51.214;6.786;2022-10-16T23:55:22;3.92;;;3.50;;
